sensor_id;sensor_type;location;lat;lon;timestamp;pressure;altitude;pressure_sealevel;temperature;humidity
13367;BME280;6752;52.612;13.630;2023-10-31T00:02:54;98886.41;;;11.70;100.00
13367;BME280;6752;52.612;13.630;2023-10-31T00:07:56;98874.95;;;11.68;100.00
13367;BME280;6752;52.612;13.630;2023-10-31T00:12:59;98878.23;;;11.60;100.00
13367;BME280;6752;52.612;13.630;2023-10-31T00:18:01;98891.46;;;11.69;100.00
13367;BME280;6752;52.612;13.630;2023-10-31T00:23:04;98885.19;;;11.72;100.00
13367;BME280;6752;52.612;13.630;2023-10-31T00:28:06;98915.64;;;11.82;100.00
13367;BME280;6752;52.612;13.630;2023-10-31T00:33:08;98901.28;;;11.76;100.00
13367;BME280;6752;52.612;13.630;2023-10-31T00:38:11;98895.85;;;11.81;100.00
13367;BME280;6752;52.612;13.630;2023-10-31T00:43:13;98879.18;;;11.75;100.00
13367;BME280;6752;52.612;13.630;2023-10-31T00:48:15;98883.55;;;11.73;100.00
13367;BME280;6752;52.612;13.630;2023-10-31T00:53:22;98870.72;;;11.71;100.00
13367;BME280;6752;52.612;13.630;2023-10-31T00:58:20;98859.95;;;11.60;100.00
13367;BME280;6752;52.612;13.630;2023-10-31T01:03:22;98858.98;;;11.60;100.00
13367;BME280;6752;52.612;13.630;2023-10-31T01:08:25;98867.59;;;11.63;100.00
13367;BME280;6752;52.612;13.630;2023-10-31T01:13:27;98871.23;;;11.53;100.00
13367;BME280;6752;52.612;13.630;2023-10-31T01:18:29;98854.19;;;11.57;100.00
13367;BME280;6752;52.612;13.630;2023-10-31T01:23:32;98845.48;;;11.60;100.00
13367;BME280;6752;52.612;13.630;2023-10-31T01:28:34;98835.94;;;11.60;100.00
13367;BME280;6752;52.612;13.630;2023-10-31T01:33:37;98822.95;;;11.58;100.00
13367;BME280;6752;52.612;13.630;2023-10-31T01:38:39;98815.17;;;11.53;100.00
13367;BME280;6752;52.612;13.630;2023-10-31T01:43:41;98792.41;;;11.46;100.00
13367;BME280;6752;52.612;13.630;2023-10-31T01:48:44;98796.77;;;11.50;100.00
13367;BME280;6752;52.612;13.630;2023-10-31T01:53:46;98802.09;;;11.40;100.00
13367;BME280;6752;52.612;13.630;2023-10-31T01:58:49;98775.63;;;11.61;100.00
13367;BME280;6752;52.612;13.630;2023-10-31T02:03:51;98778.22;;;11.39;100.00
13367;BME280;6752;52.612;13.630;2023-10-31T02:08:53;98775.22;;;11.41;100.00
13367;BME280;6752;52.612;13.630;2023-10-31T02:13:56;98776.17;;;11.40;100.00
13367;BME280;6752;52.612;13.630;2023-10-31T02:18:58;98778.22;;;11.37;100.00
13367;BME280;6752;52.612;13.630;2023-10-31T02:24:04;98777.12;;;11.43;100.00
13367;BME280;6752;52.612;13.630;2023-10-31T02:29:03;98741.64;;;11.35;100.00
13367;BME280;6752;52.612;13.630;2023-10-31T02:34:05;98728.30;;;11.23;100.00
13367;BME280;6752;52.612;13.630;2023-10-31T02:39:08;98724.34;;;11.25;100.00
13367;BME280;6752;52.612;13.630;2023-10-31T02:44:10;98709.06;;;11.29;100.00
13367;BME280;6752;52.612;13.630;2023-10-31T02:49:12;98701.16;;;11.30;100.00
13367;BME280;6752;52.612;13.630;2023-10-31T02:54:15;98708.81;;;11.18;100.00
13367;BME280;6752;52.612;13.630;2023-10-31T02:59:17;98711.67;;;11.15;100.00
13367;BME280;6752;52.612;13.630;2023-10-31T03:04:19;98707.83;;;11.05;100.00
13367;BME280;6752;52.612;13.630;2023-10-31T03:09:22;98706.33;;;11.09;100.00
13367;BME280;6752;52.612;13.630;2023-10-31T03:14:24;98703.91;;;11.12;100.00
13367;BME280;6752;52.612;13.630;2023-10-31T03:19:26;98700.77;;;11.20;100.00
13367;BME280;6752;52.612;13.630;2023-10-31T03:24:29;98689.17;;;11.18;100.00
13367;BME280;6752;52.612;13.630;2023-10-31T03:29:31;98671.58;;;11.07;100.00
13367;BME280;6752;52.612;13.630;2023-10-31T03:34:34;98675.14;;;11.13;100.00
13367;BME280;6752;52.612;13.630;2023-10-31T03:39:36;98690.00;;;11.14;100.00
13367;BME280;6752;52.612;13.630;2023-10-31T03:44:38;98696.67;;;11.17;100.00
13367;BME280;6752;52.612;13.630;2023-10-31T03:49:41;98699.66;;;11.31;100.00
13367;BME280;6752;52.612;13.630;2023-10-31T03:54:43;98694.75;;;11.30;100.00
13367;BME280;6752;52.612;13.630;2023-10-31T03:59:45;98698.56;;;11.27;100.00
13367;BME280;6752;52.612;13.630;2023-10-31T04:04:48;98698.83;;;11.33;100.00
13367;BME280;6752;52.612;13.630;2023-10-31T04:09:50;98693.40;;;11.20;100.00
13367;BME280;6752;52.612;13.630;2023-10-31T04:14:52;98700.63;;;11.36;100.00
13367;BME280;6752;52.612;13.630;2023-10-31T04:19:55;98693.13;;;11.37;100.00
13367;BME280;6752;52.612;13.630;2023-10-31T04:24:57;98695.56;;;11.33;100.00
13367;BME280;6752;52.612;13.630;2023-10-31T04:29:59;98697.47;;;11.35;100.00
13367;BME280;6752;52.612;13.630;2023-10-31T04:35:02;98690.78;;;11.35;100.00
13367;BME280;6752;52.612;13.630;2023-10-31T04:40:04;98691.06;;;11.33;100.00
13367;BME280;6752;52.612;13.630;2023-10-31T04:45:07;98683.85;;;11.38;100.00
13367;BME280;6752;52.612;13.630;2023-10-31T04:50:09;98683.70;;;11.41;100.00
13367;BME280;6752;52.612;13.630;2023-10-31T04:55:11;98680.42;;;11.44;100.00
13367;BME280;6752;52.612;13.630;2023-10-31T05:00:14;98671.69;;;11.47;100.00
13367;BME280;6752;52.612;13.630;2023-10-31T05:05:16;98664.73;;;11.46;100.00
13367;BME280;6752;52.612;13.630;2023-10-31T05:10:18;98660.11;;;11.44;100.00
13367;BME280;6752;52.612;13.630;2023-10-31T05:15:21;98668.70;;;11.41;100.00
13367;BME280;6752;52.612;13.630;2023-10-31T05:20:23;98682.21;;;11.40;100.00
13367;BME280;6752;52.612;13.630;2023-10-31T05:25:26;98681.93;;;11.44;100.00
13367;BME280;6752;52.612;13.630;2023-10-31T05:30:28;98679.33;;;11.45;100.00
13367;BME280;6752;52.612;13.630;2023-10-31T05:35:30;98675.64;;;11.48;100.00
13367;BME280;6752;52.612;13.630;2023-10-31T05:40:33;98682.59;;;11.47;100.00
13367;BME280;6752;52.612;13.630;2023-10-31T05:45:35;98682.33;;;11.49;100.00
13367;BME280;6752;52.612;13.630;2023-10-31T05:50:37;98678.77;;;11.51;100.00
13367;BME280;6752;52.612;13.630;2023-10-31T05:55:40;98668.00;;;11.48;100.00
13367;BME280;6752;52.612;13.630;2023-10-31T06:00:42;98673.05;;;11.50;100.00
13367;BME280;6752;52.612;13.630;2023-10-31T06:05:44;98696.90;;;11.56;100.00
13367;BME280;6752;52.612;13.630;2023-10-31T06:10:47;98703.86;;;11.56;100.00
13367;BME280;6752;52.612;13.630;2023-10-31T06:15:49;98697.33;;;11.62;100.00
13367;BME280;6752;52.612;13.630;2023-10-31T06:20:52;98696.35;;;11.67;100.00
13367;BME280;6752;52.612;13.630;2023-10-31T06:25:54;98702.89;;;11.71;100.00
13367;BME280;6752;52.612;13.630;2023-10-31T06:30:56;98706.97;;;11.74;100.00
13367;BME280;6752;52.612;13.630;2023-10-31T06:35:59;98717.08;;;11.73;100.00
13367;BME280;6752;52.612;13.630;2023-10-31T06:41:09;98730.30;;;11.78;100.00
13367;BME280;6752;52.612;13.630;2023-10-31T06:46:11;98735.93;;;11.85;100.00
13367;BME280;6752;52.612;13.630;2023-10-31T06:51:14;98733.18;;;11.90;100.00
13367;BME280;6752;52.612;13.630;2023-10-31T06:56:16;98736.58;;;11.94;100.00
13367;BME280;6752;52.612;13.630;2023-10-31T07:01:19;98742.44;;;11.96;100.00
13367;BME280;6752;52.612;13.630;2023-10-31T07:06:21;98739.95;;;12.03;100.00
13367;BME280;6752;52.612;13.630;2023-10-31T07:11:23;98752.11;;;12.11;100.00
13367;BME280;6752;52.612;13.630;2023-10-31T07:16:26;98753.73;;;12.14;100.00
13367;BME280;6752;52.612;13.630;2023-10-31T07:21:28;98769.67;;;12.22;100.00
13367;BME280;6752;52.612;13.630;2023-10-31T07:26:30;98767.88;;;12.27;100.00
13367;BME280;6752;52.612;13.630;2023-10-31T07:31:33;98762.69;;;12.33;100.00
13367;BME280;6752;52.612;13.630;2023-10-31T07:36:35;98753.80;;;12.37;100.00
13367;BME280;6752;52.612;13.630;2023-10-31T07:41:37;98780.18;;;12.32;100.00
13367;BME280;6752;52.612;13.630;2023-10-31T07:46:40;98788.09;;;12.33;100.00
13367;BME280;6752;52.612;13.630;2023-10-31T07:51:42;98801.61;;;12.34;100.00
13367;BME280;6752;52.612;13.630;2023-10-31T07:56:44;98811.05;;;12.25;100.00
13367;BME280;6752;52.612;13.630;2023-10-31T08:01:47;98810.38;;;12.21;100.00
13367;BME280;6752;52.612;13.630;2023-10-31T08:06:49;98813.36;;;12.24;100.00
13367;BME280;6752;52.612;13.630;2023-10-31T08:11:52;98807.36;;;12.22;100.00
13367;BME280;6752;52.612;13.630;2023-10-31T08:16:54;98816.14;;;12.12;100.00
13367;BME280;6752;52.612;13.630;2023-10-31T08:21:56;98817.36;;;12.15;100.00
13367;BME280;6752;52.612;13.630;2023-10-31T08:26:59;98839.91;;;12.09;100.00
13367;BME280;6752;52.612;13.630;2023-10-31T08:32:01;98849.72;;;12.02;100.00
13367;BME280;6752;52.612;13.630;2023-10-31T08:37:03;98866.39;;;11.95;100.00
13367;BME280;6752;52.612;13.630;2023-10-31T08:42:06;98886.87;;;11.90;100.00
13367;BME280;6752;52.612;13.630;2023-10-31T08:47:08;98886.46;;;11.90;100.00
13367;BME280;6752;52.612;13.630;2023-10-31T08:52:10;98894.92;;;11.86;100.00
13367;BME280;6752;52.612;13.630;2023-10-31T08:57:13;98898.20;;;11.88;100.00
13367;BME280;6752;52.612;13.630;2023-10-31T09:02:15;98902.98;;;11.87;100.00
13367;BME280;6752;52.612;13.630;2023-10-31T09:07:17;98903.80;;;11.85;100.00
13367;BME280;6752;52.612;13.630;2023-10-31T09:12:20;98910.22;;;11.85;100.00
13367;BME280;6752;52.612;13.630;2023-10-31T09:17:22;98917.83;;;11.82;100.00
13367;BME280;6752;52.612;13.630;2023-10-31T09:22:25;98928.50;;;11.84;100.00
13367;BME280;6752;52.612;13.630;2023-10-31T09:27:27;98932.73;;;11.86;100.00
13367;BME280;6752;52.612;13.630;2023-10-31T09:32:29;98935.86;;;12.06;100.00
13367;BME280;6752;52.612;13.630;2023-10-31T09:37:32;98931.77;;;12.06;100.00
13367;BME280;6752;52.612;13.630;2023-10-31T09:42:34;98942.69;;;11.96;100.00
13367;BME280;6752;52.612;13.630;2023-10-31T09:47:36;98950.75;;;11.92;100.00
13367;BME280;6752;52.612;13.630;2023-10-31T09:52:39;98960.58;;;11.90;100.00
13367;BME280;6752;52.612;13.630;2023-10-31T09:57:41;98963.03;;;11.94;100.00
13367;BME280;6752;52.612;13.630;2023-10-31T10:02:43;98976.27;;;11.92;100.00
13367;BME280;6752;52.612;13.630;2023-10-31T10:07:46;98976.41;;;11.93;100.00
13367;BME280;6752;52.612;13.630;2023-10-31T10:12:48;98976.69;;;11.94;100.00
13367;BME280;6752;52.612;13.630;2023-10-31T10:17:51;98989.80;;;11.97;100.00
13367;BME280;6752;52.612;13.630;2023-10-31T10:22:53;98997.56;;;11.92;100.00
13367;BME280;6752;52.612;13.630;2023-10-31T10:27:55;99012.59;;;12.00;100.00
13367;BME280;6752;52.612;13.630;2023-10-31T10:32:58;99001.97;;;12.21;100.00
13367;BME280;6752;52.612;13.630;2023-10-31T10:38:00;98991.59;;;12.43;100.00
13367;BME280;6752;52.612;13.630;2023-10-31T10:43:02;98998.97;;;12.45;100.00
13367;BME280;6752;52.612;13.630;2023-10-31T10:48:05;99011.55;;;12.36;100.00
13367;BME280;6752;52.612;13.630;2023-10-31T10:53:16;98995.41;;;12.50;100.00
13367;BME280;6752;52.612;13.630;2023-10-31T10:58:13;99002.67;;;12.58;100.00
13367;BME280;6752;52.612;13.630;2023-10-31T11:03:14;99000.89;;;12.55;100.00
13367;BME280;6752;52.612;13.630;2023-10-31T11:08:17;99011.83;;;12.55;100.00
13367;BME280;6752;52.612;13.630;2023-10-31T11:13:19;98999.09;;;12.52;100.00
13367;BME280;6752;52.612;13.630;2023-10-31T11:18:21;98998.84;;;12.59;100.00
13367;BME280;6752;52.612;13.630;2023-10-31T11:23:24;99001.94;;;12.77;100.00
13367;BME280;6752;52.612;13.630;2023-10-31T11:28:26;98999.48;;;12.75;100.00
13367;BME280;6752;52.612;13.630;2023-10-31T11:33:29;99005.23;;;12.82;100.00
13367;BME280;6752;52.612;13.630;2023-10-31T11:38:32;99008.25;;;12.80;100.00
13367;BME280;6752;52.612;13.630;2023-10-31T11:43:49;99002.77;;;12.75;100.00
13367;BME280;6752;52.612;13.630;2023-10-31T11:48:49;99021.77;;;12.76;100.00
13367;BME280;6752;52.612;13.630;2023-10-31T11:53:50;99026.95;;;12.75;100.00
13367;BME280;6752;52.612;13.630;2023-10-31T11:59:00;99033.68;;;12.78;100.00
13367;BME280;6752;52.612;13.630;2023-10-31T12:03:58;99021.91;;;12.85;100.00
13367;BME280;6752;52.612;13.630;2023-10-31T12:09:00;99030.08;;;13.03;100.00
13367;BME280;6752;52.612;13.630;2023-10-31T12:14:03;99039.63;;;13.11;100.00
13367;BME280;6752;52.612;13.630;2023-10-31T12:19:07;99043.78;;;12.85;100.00
13367;BME280;6752;52.612;13.630;2023-10-31T12:24:11;99046.09;;;12.72;100.00
13367;BME280;6752;52.612;13.630;2023-10-31T12:29:18;99058.00;;;12.67;100.00
13367;BME280;6752;52.612;13.630;2023-10-31T12:34:21;99061.16;;;12.54;100.00
13367;BME280;6752;52.612;13.630;2023-10-31T12:39:26;99086.16;;;12.57;100.00
13367;BME280;6752;52.612;13.630;2023-10-31T12:44:25;99080.41;;;12.64;100.00
13367;BME280;6752;52.612;13.630;2023-10-31T12:49:27;99091.75;;;12.69;100.00
13367;BME280;6752;52.612;13.630;2023-10-31T12:59:35;99106.38;;;12.56;100.00
13367;BME280;6752;52.612;13.630;2023-10-31T13:04:37;99101.30;;;12.51;100.00
13367;BME280;6752;52.612;13.630;2023-10-31T13:09:39;99096.11;;;12.50;100.00
13367;BME280;6752;52.612;13.630;2023-10-31T13:14:42;99113.87;;;12.45;100.00
13367;BME280;6752;52.612;13.630;2023-10-31T13:19:44;99122.47;;;12.32;100.00
13367;BME280;6752;52.612;13.630;2023-10-31T13:24:46;99140.05;;;12.25;100.00
13367;BME280;6752;52.612;13.630;2023-10-31T13:29:49;99149.89;;;12.29;100.00
13367;BME280;6752;52.612;13.630;2023-10-31T13:34:51;99155.89;;;12.28;100.00
13367;BME280;6752;52.612;13.630;2023-10-31T13:39:53;99141.31;;;12.31;100.00
13367;BME280;6752;52.612;13.630;2023-10-31T13:44:56;99137.09;;;12.35;100.00
13367;BME280;6752;52.612;13.630;2023-10-31T13:49:58;99136.67;;;12.32;100.00
13367;BME280;6752;52.612;13.630;2023-10-31T13:55:00;99150.02;;;12.26;100.00
13367;BME280;6752;52.612;13.630;2023-10-31T14:00:06;99168.84;;;12.12;100.00
13367;BME280;6752;52.612;13.630;2023-10-31T14:05:08;99181.76;;;12.06;100.00
13367;BME280;6752;52.612;13.630;2023-10-31T14:10:10;99191.72;;;12.03;100.00
13367;BME280;6752;52.612;13.630;2023-10-31T14:15:13;99204.97;;;12.03;100.00
13367;BME280;6752;52.612;13.630;2023-10-31T14:20:15;99227.34;;;12.00;100.00
13367;BME280;6752;52.612;13.630;2023-10-31T14:25:17;99237.70;;;11.95;100.00
13367;BME280;6752;52.612;13.630;2023-10-31T14:30:20;99252.70;;;11.93;100.00
13367;BME280;6752;52.612;13.630;2023-10-31T14:35:22;99256.38;;;11.74;100.00
13367;BME280;6752;52.612;13.630;2023-10-31T14:40:25;99273.28;;;11.71;100.00
13367;BME280;6752;52.612;13.630;2023-10-31T14:45:27;99290.72;;;11.67;100.00
13367;BME280;6752;52.612;13.630;2023-10-31T14:50:29;99308.34;;;11.36;100.00
13367;BME280;6752;52.612;13.630;2023-10-31T14:55:32;99322.22;;;11.19;100.00
13367;BME280;6752;52.612;13.630;2023-10-31T15:00:34;99323.28;;;11.04;100.00
13367;BME280;6752;52.612;13.630;2023-10-31T15:05:36;99340.05;;;10.80;100.00
13367;BME280;6752;52.612;13.630;2023-10-31T15:10:39;99329.09;;;10.75;100.00
13367;BME280;6752;52.612;13.630;2023-10-31T15:15:41;99342.95;;;10.71;100.00
13367;BME280;6752;52.612;13.630;2023-10-31T15:20:43;99359.46;;;10.73;100.00
13367;BME280;6752;52.612;13.630;2023-10-31T15:25:46;99362.52;;;10.65;100.00
13367;BME280;6752;52.612;13.630;2023-10-31T15:30:48;99376.32;;;10.70;100.00
13367;BME280;6752;52.612;13.630;2023-10-31T15:35:51;99374.83;;;10.70;100.00
13367;BME280;6752;52.612;13.630;2023-10-31T15:40:53;99369.73;;;10.66;100.00
13367;BME280;6752;52.612;13.630;2023-10-31T15:45:55;99383.14;;;10.61;100.00
13367;BME280;6752;52.612;13.630;2023-10-31T15:50:58;99382.86;;;10.60;100.00
13367;BME280;6752;52.612;13.630;2023-10-31T15:56:00;99385.42;;;10.58;100.00
13367;BME280;6752;52.612;13.630;2023-10-31T16:01:02;99391.16;;;10.59;100.00
13367;BME280;6752;52.612;13.630;2023-10-31T16:06:05;99399.74;;;10.60;100.00
13367;BME280;6752;52.612;13.630;2023-10-31T16:11:07;99398.51;;;10.59;100.00
13367;BME280;6752;52.612;13.630;2023-10-31T16:16:10;99410.83;;;10.53;100.00
13367;BME280;6752;52.612;13.630;2023-10-31T16:21:18;99406.52;;;10.46;100.00
13367;BME280;6752;52.612;13.630;2023-10-31T16:26:20;99418.87;;;10.35;100.00
13367;BME280;6752;52.612;13.630;2023-10-31T16:31:23;99426.46;;;10.33;100.00
13367;BME280;6752;52.612;13.630;2023-10-31T16:36:24;99438.14;;;10.30;100.00
13367;BME280;6752;52.612;13.630;2023-10-31T16:41:27;99442.61;;;10.28;100.00
13367;BME280;6752;52.612;13.630;2023-10-31T16:46:29;99446.78;;;10.25;100.00
13367;BME280;6752;52.612;13.630;2023-10-31T16:51:32;99452.31;;;10.22;100.00
13367;BME280;6752;52.612;13.630;2023-10-31T16:56:34;99468.05;;;10.20;100.00
13367;BME280;6752;52.612;13.630;2023-10-31T17:01:36;99467.66;;;10.13;100.00
13367;BME280;6752;52.612;13.630;2023-10-31T17:06:39;99470.97;;;10.21;100.00
13367;BME280;6752;52.612;13.630;2023-10-31T17:11:41;99483.83;;;10.26;100.00
13367;BME280;6752;52.612;13.630;2023-10-31T17:16:43;99486.05;;;10.29;100.00
13367;BME280;6752;52.612;13.630;2023-10-31T17:21:46;99491.66;;;10.31;100.00
13367;BME280;6752;52.612;13.630;2023-10-31T17:26:48;99489.44;;;10.28;100.00
13367;BME280;6752;52.612;13.630;2023-10-31T17:31:50;99493.90;;;10.25;100.00
13367;BME280;6752;52.612;13.630;2023-10-31T17:36:53;99500.33;;;10.28;100.00
13367;BME280;6752;52.612;13.630;2023-10-31T17:41:55;99513.70;;;10.29;100.00
13367;BME280;6752;52.612;13.630;2023-10-31T17:46:57;99526.57;;;10.34;100.00
13367;BME280;6752;52.612;13.630;2023-10-31T17:52:00;99530.30;;;10.44;100.00
13367;BME280;6752;52.612;13.630;2023-10-31T17:57:02;99533.94;;;10.42;100.00
13367;BME280;6752;52.612;13.630;2023-10-31T18:02:05;99530.02;;;10.43;100.00
13367;BME280;6752;52.612;13.630;2023-10-31T18:07:07;99541.11;;;10.48;100.00
13367;BME280;6752;52.612;13.630;2023-10-31T18:12:09;99548.02;;;10.44;100.00
13367;BME280;6752;52.612;13.630;2023-10-31T18:17:12;99550.11;;;10.48;100.00
13367;BME280;6752;52.612;13.630;2023-10-31T18:22:14;99562.00;;;10.51;100.00
13367;BME280;6752;52.612;13.630;2023-10-31T18:27:16;99556.34;;;10.55;100.00
13367;BME280;6752;52.612;13.630;2023-10-31T18:32:19;99555.52;;;10.54;100.00
13367;BME280;6752;52.612;13.630;2023-10-31T18:37:21;99559.55;;;10.60;100.00
13367;BME280;6752;52.612;13.630;2023-10-31T18:42:23;99557.97;;;10.64;100.00
13367;BME280;6752;52.612;13.630;2023-10-31T18:47:26;99572.20;;;10.66;100.00
13367;BME280;6752;52.612;13.630;2023-10-31T18:52:28;99573.55;;;10.74;100.00
13367;BME280;6752;52.612;13.630;2023-10-31T18:57:30;99591.94;;;10.73;100.00
13367;BME280;6752;52.612;13.630;2023-10-31T19:02:33;99600.14;;;10.76;100.00
13367;BME280;6752;52.612;13.630;2023-10-31T19:07:35;99616.21;;;10.75;100.00
13367;BME280;6752;52.612;13.630;2023-10-31T19:12:38;99620.76;;;10.69;100.00
13367;BME280;6752;52.612;13.630;2023-10-31T19:17:40;99637.87;;;10.50;100.00
13367;BME280;6752;52.612;13.630;2023-10-31T19:22:42;99636.88;;;10.48;100.00
13367;BME280;6752;52.612;13.630;2023-10-31T19:27:45;99654.75;;;10.36;100.00
13367;BME280;6752;52.612;13.630;2023-10-31T19:32:47;99656.80;;;10.28;100.00
13367;BME280;6752;52.612;13.630;2023-10-31T19:37:49;99660.84;;;10.14;100.00
13367;BME280;6752;52.612;13.630;2023-10-31T19:42:52;99676.73;;;9.97;100.00
13367;BME280;6752;52.612;13.630;2023-10-31T19:47:54;99692.70;;;9.88;100.00
13367;BME280;6752;52.612;13.630;2023-10-31T19:52:56;99703.24;;;9.52;100.00
13367;BME280;6752;52.612;13.630;2023-10-31T19:57:59;99725.27;;;9.18;100.00
13367;BME280;6752;52.612;13.630;2023-10-31T20:03:01;99738.81;;;8.89;100.00
13367;BME280;6752;52.612;13.630;2023-10-31T20:08:03;99750.62;;;8.68;100.00
13367;BME280;6752;52.612;13.630;2023-10-31T20:13:06;99759.75;;;8.50;100.00
13367;BME280;6752;52.612;13.630;2023-10-31T20:18:08;99771.81;;;8.39;100.00
13367;BME280;6752;52.612;13.630;2023-10-31T20:23:10;99776.36;;;8.32;100.00
13367;BME280;6752;52.612;13.630;2023-10-31T20:28:13;99768.02;;;8.21;100.00
13367;BME280;6752;52.612;13.630;2023-10-31T20:33:15;99784.12;;;8.01;100.00
13367;BME280;6752;52.612;13.630;2023-10-31T20:38:18;99795.42;;;7.98;100.00
13367;BME280;6752;52.612;13.630;2023-10-31T20:43:20;99796.07;;;7.88;100.00
13367;BME280;6752;52.612;13.630;2023-10-31T20:48:22;99807.72;;;7.79;100.00
13367;BME280;6752;52.612;13.630;2023-10-31T20:53:25;99824.48;;;7.73;100.00
13367;BME280;6752;52.612;13.630;2023-10-31T20:58:28;99828.13;;;7.63;100.00
13367;BME280;6752;52.612;13.630;2023-10-31T21:03:30;99841.41;;;7.47;100.00
13367;BME280;6752;52.612;13.630;2023-10-31T21:08:32;99855.35;;;7.38;100.00
13367;BME280;6752;52.612;13.630;2023-10-31T21:13:35;99855.48;;;7.30;100.00
13367;BME280;6752;52.612;13.630;2023-10-31T21:18:37;99861.05;;;7.14;100.00
13367;BME280;6752;52.612;13.630;2023-10-31T21:23:39;99864.76;;;7.00;100.00
13367;BME280;6752;52.612;13.630;2023-10-31T21:28:42;99875.69;;;6.87;100.00
13367;BME280;6752;52.612;13.630;2023-10-31T21:33:44;99864.68;;;6.75;100.00
13367;BME280;6752;52.612;13.630;2023-10-31T21:38:46;99870.59;;;6.63;100.00
13367;BME280;6752;52.612;13.630;2023-10-31T21:43:49;99874.55;;;6.57;100.00
13367;BME280;6752;52.612;13.630;2023-10-31T21:48:51;99890.73;;;6.48;100.00
13367;BME280;6752;52.612;13.630;2023-10-31T21:53:54;99893.47;;;6.41;100.00
13367;BME280;6752;52.612;13.630;2023-10-31T21:58:56;99903.88;;;6.34;100.00
13367;BME280;6752;52.612;13.630;2023-10-31T22:03:58;99917.52;;;6.33;100.00
13367;BME280;6752;52.612;13.630;2023-10-31T22:09:01;99944.49;;;6.27;100.00
13367;BME280;6752;52.612;13.630;2023-10-31T22:14:03;99950.03;;;6.20;100.00
13367;BME280;6752;52.612;13.630;2023-10-31T22:19:05;99962.20;;;6.07;100.00
13367;BME280;6752;52.612;13.630;2023-10-31T22:24:08;99967.83;;;5.99;100.00
13367;BME280;6752;52.612;13.630;2023-10-31T22:29:10;99973.97;;;5.97;100.00
13367;BME280;6752;52.612;13.630;2023-10-31T22:34:12;99974.91;;;6.03;100.00
13367;BME280;6752;52.612;13.630;2023-10-31T22:39:15;99978.55;;;5.99;100.00
13367;BME280;6752;52.612;13.630;2023-10-31T22:44:17;99992.80;;;6.01;100.00
13367;BME280;6752;52.612;13.630;2023-10-31T22:49:19;100004.55;;;6.10;100.00
13367;BME280;6752;52.612;13.630;2023-10-31T22:54:22;100022.34;;;6.12;100.00
13367;BME280;6752;52.612;13.630;2023-10-31T22:59:24;100020.67;;;6.14;100.00
13367;BME280;6752;52.612;13.630;2023-10-31T23:04:26;100033.40;;;6.17;100.00
13367;BME280;6752;52.612;13.630;2023-10-31T23:09:29;100038.59;;;6.19;100.00
13367;BME280;6752;52.612;13.630;2023-10-31T23:14:31;100027.46;;;6.21;100.00
13367;BME280;6752;52.612;13.630;2023-10-31T23:19:34;100036.41;;;6.22;100.00
13367;BME280;6752;52.612;13.630;2023-10-31T23:24:36;100032.02;;;6.14;100.00
13367;BME280;6752;52.612;13.630;2023-10-31T23:29:38;100030.47;;;6.06;100.00
13367;BME280;6752;52.612;13.630;2023-10-31T23:34:41;100038.58;;;6.02;100.00
13367;BME280;6752;52.612;13.630;2023-10-31T23:39:43;100035.04;;;6.08;100.00
13367;BME280;6752;52.612;13.630;2023-10-31T23:44:45;100050.13;;;6.10;100.00
13367;BME280;6752;52.612;13.630;2023-10-31T23:49:48;100048.56;;;6.12;100.00
13367;BME280;6752;52.612;13.630;2023-10-31T23:54:50;100051.69;;;6.05;100.00
13367;BME280;6752;52.612;13.630;2023-10-31T23:59:52;100058.55;;;6.11;100.00
